sensor_id;sensor_type;location;lat;lon;timestamp;pressure;altitude;pressure_sealevel;temperature;humidity
49044;BME280;34860;48.066;14.124;2023-05-20T00:01:03;96807.53;;;13.76;66.34
49044;BME280;34860;48.066;14.124;2023-05-20T00:03:51;96796.81;;;13.74;66.40
49044;BME280;34860;48.066;14.124;2023-05-20T00:06:41;96800.03;;;13.73;66.37
49044;BME280;34860;48.066;14.124;2023-05-20T00:09:30;96796.94;;;13.71;66.32
49044;BME280;34860;48.066;14.124;2023-05-20T00:12:21;96795.06;;;13.68;66.34
49044;BME280;34860;48.066;14.124;2023-05-20T00:15:18;96787.91;;;13.67;66.27
49044;BME280;34860;48.066;14.124;2023-05-20T00:18:10;96787.59;;;13.65;66.53
49044;BME280;34860;48.066;14.124;2023-05-20T00:21:03;96786.47;;;13.62;66.42
49044;BME280;34860;48.066;14.124;2023-05-20T00:24:00;96781.34;;;13.60;66.31
49044;BME280;34860;48.066;14.124;2023-05-20T00:26:51;96783.81;;;13.58;66.36
49044;BME280;34860;48.066;14.124;2023-05-20T00:29:40;96777.09;;;13.56;66.42
49044;BME280;34860;48.066;14.124;2023-05-20T00:32:28;96775.56;;;13.55;66.20
49044;BME280;34860;48.066;14.124;2023-05-20T00:35:20;96769.63;;;13.53;66.41
49044;BME280;34860;48.066;14.124;2023-05-20T00:38:13;96763.75;;;13.51;66.44
49044;BME280;34860;48.066;14.124;2023-05-20T00:41:03;96758.59;;;13.49;66.47
49044;BME280;34860;48.066;14.124;2023-05-20T00:43:53;96754.72;;;13.47;66.42
49044;BME280;34860;48.066;14.124;2023-05-20T00:46:46;96757.19;;;13.44;66.23
49044;BME280;34860;48.066;14.124;2023-05-20T00:49:39;96754.06;;;13.42;66.50
49044;BME280;34860;48.066;14.124;2023-05-20T00:52:30;96759.34;;;13.40;66.51
49044;BME280;34860;48.066;14.124;2023-05-20T00:55:20;96754.97;;;13.39;66.54
49044;BME280;34860;48.066;14.124;2023-05-20T00:58:13;96763.81;;;13.38;66.56
49044;BME280;34860;48.066;14.124;2023-05-20T01:01:01;96760.69;;;13.36;66.68
49044;BME280;34860;48.066;14.124;2023-05-20T01:03:50;96755.56;;;13.34;66.37
49044;BME280;34860;48.066;14.124;2023-05-20T01:06:40;96749.59;;;13.32;66.49
49044;BME280;34860;48.066;14.124;2023-05-20T01:09:29;96751.63;;;13.32;66.56
49044;BME280;34860;48.066;14.124;2023-05-20T01:12:25;96750.53;;;13.29;66.58
49044;BME280;34860;48.066;14.124;2023-05-20T01:15:19;96752.97;;;13.27;66.54
49044;BME280;34860;48.066;14.124;2023-05-20T01:18:12;96743.06;;;13.26;66.71
49044;BME280;34860;48.066;14.124;2023-05-20T01:21:07;96745.06;;;13.25;66.61
49044;BME280;34860;48.066;14.124;2023-05-20T01:24:06;96745.84;;;13.26;66.70
49044;BME280;34860;48.066;14.124;2023-05-20T01:26:58;96743.97;;;13.23;66.72
49044;BME280;34860;48.066;14.124;2023-05-20T01:29:52;96761.94;;;13.22;66.32
49044;BME280;34860;48.066;14.124;2023-05-20T01:32:47;96747.66;;;13.20;66.60
49044;BME280;34860;48.066;14.124;2023-05-20T01:35:41;96753.69;;;13.18;66.61
49044;BME280;34860;48.066;14.124;2023-05-20T01:38:36;96744.53;;;13.18;66.70
49044;BME280;34860;48.066;14.124;2023-05-20T01:41:28;96750.59;;;13.16;66.60
49044;BME280;34860;48.066;14.124;2023-05-20T01:44:19;96747.81;;;13.16;66.60
49044;BME280;34860;48.066;14.124;2023-05-20T01:47:08;96743.44;;;13.15;66.61
49044;BME280;34860;48.066;14.124;2023-05-20T01:50:00;96743.91;;;13.14;66.61
49044;BME280;34860;48.066;14.124;2023-05-20T01:52:51;96739.88;;;13.15;66.71
49044;BME280;34860;48.066;14.124;2023-05-20T01:55:40;96749.47;;;13.14;66.64
49044;BME280;34860;48.066;14.124;2023-05-20T01:58:37;96757.84;;;13.14;66.63
49044;BME280;34860;48.066;14.124;2023-05-20T02:01:32;96747.91;;;13.13;66.53
49044;BME280;34860;48.066;14.124;2023-05-20T02:04:28;96751.94;;;13.12;66.61
49044;BME280;34860;48.066;14.124;2023-05-20T02:07:17;96757.97;;;13.10;66.58
49044;BME280;34860;48.066;14.124;2023-05-20T02:10:07;96752.41;;;13.10;66.61
49044;BME280;34860;48.066;14.124;2023-05-20T02:12:58;96746.00;;;13.09;66.56
49044;BME280;34860;48.066;14.124;2023-05-20T02:15:51;96747.59;;;13.11;66.64
49044;BME280;34860;48.066;14.124;2023-05-20T02:18:43;96752.03;;;13.08;66.57
49044;BME280;34860;48.066;14.124;2023-05-20T02:21:36;96753.28;;;13.07;66.61
49044;BME280;34860;48.066;14.124;2023-05-20T02:24:26;96748.94;;;13.06;66.74
49044;BME280;34860;48.066;14.124;2023-05-20T02:27:18;96754.50;;;13.06;66.68
49044;BME280;34860;48.066;14.124;2023-05-20T02:30:07;96748.63;;;13.04;66.78
49044;BME280;34860;48.066;14.124;2023-05-20T02:32:58;96748.63;;;13.04;66.62
49044;BME280;34860;48.066;14.124;2023-05-20T02:35:51;96748.28;;;13.02;66.68
49044;BME280;34860;48.066;14.124;2023-05-20T02:38:45;96743.94;;;13.01;66.74
49044;BME280;34860;48.066;14.124;2023-05-20T02:41:38;96746.72;;;13.01;66.69
49044;BME280;34860;48.066;14.124;2023-05-20T02:44:32;96739.13;;;13.01;66.74
49044;BME280;34860;48.066;14.124;2023-05-20T02:47:27;96739.25;;;12.98;66.76
49044;BME280;34860;48.066;14.124;2023-05-20T02:50:19;96739.72;;;12.96;66.89
49044;BME280;34860;48.066;14.124;2023-05-20T02:53:11;96750.41;;;12.98;66.75
49044;BME280;34860;48.066;14.124;2023-05-20T02:55:59;96750.56;;;12.94;66.71
49044;BME280;34860;48.066;14.124;2023-05-20T02:58:48;96753.78;;;12.93;66.76
49044;BME280;34860;48.066;14.124;2023-05-20T03:01:38;96751.00;;;12.93;66.90
49044;BME280;34860;48.066;14.124;2023-05-20T03:04:31;96745.06;;;12.90;66.80
49044;BME280;34860;48.066;14.124;2023-05-20T03:07:24;96738.72;;;12.90;66.88
49044;BME280;34860;48.066;14.124;2023-05-20T03:10:21;96740.75;;;12.89;66.83
49044;BME280;34860;48.066;14.124;2023-05-20T03:13:10;96743.19;;;12.87;66.93
49044;BME280;34860;48.066;14.124;2023-05-20T03:16:02;96747.22;;;12.86;66.92
49044;BME280;34860;48.066;14.124;2023-05-20T03:18:55;96749.69;;;12.84;66.83
49044;BME280;34860;48.066;14.124;2023-05-20T03:21:50;96749.69;;;12.84;66.78
49044;BME280;34860;48.066;14.124;2023-05-20T03:24:41;96748.56;;;12.82;66.86
49044;BME280;34860;48.066;14.124;2023-05-20T03:27:37;96757.38;;;12.80;66.83
49044;BME280;34860;48.066;14.124;2023-05-20T03:30:26;96747.44;;;12.79;67.12
49044;BME280;34860;48.066;14.124;2023-05-20T03:33:16;96747.13;;;12.77;66.89
49044;BME280;34860;48.066;14.124;2023-05-20T03:36:14;96756.72;;;12.76;66.84
49044;BME280;34860;48.066;14.124;2023-05-20T03:39:07;96748.78;;;12.75;67.04
49044;BME280;34860;48.066;14.124;2023-05-20T03:42:01;96750.81;;;12.74;66.96
49044;BME280;34860;48.066;14.124;2023-05-20T03:44:50;96745.69;;;12.72;66.94
49044;BME280;34860;48.066;14.124;2023-05-20T03:47:42;96756.84;;;12.72;66.98
49044;BME280;34860;48.066;14.124;2023-05-20T03:50:34;96741.78;;;12.70;67.14
49044;BME280;34860;48.066;14.124;2023-05-20T03:53:23;96759.75;;;12.69;66.89
49044;BME280;34860;48.066;14.124;2023-05-20T03:56:12;96754.63;;;12.67;66.93
49044;BME280;34860;48.066;14.124;2023-05-20T03:59:07;96752.28;;;12.66;67.02
49044;BME280;34860;48.066;14.124;2023-05-20T04:01:55;96752.72;;;12.64;66.98
49044;BME280;34860;48.066;14.124;2023-05-20T04:04:46;96748.38;;;12.63;67.12
49044;BME280;34860;48.066;14.124;2023-05-20T04:07:38;96750.84;;;12.61;67.09
49044;BME280;34860;48.066;14.124;2023-05-20T04:10:39;96747.28;;;12.61;67.08
49044;BME280;34860;48.066;14.124;2023-05-20T04:13:30;96752.06;;;12.60;67.09
49044;BME280;34860;48.066;14.124;2023-05-20T04:16:21;96742.16;;;12.59;66.95
49044;BME280;34860;48.066;14.124;2023-05-20T04:19:10;96748.50;;;12.60;67.08
49044;BME280;34860;48.066;14.124;2023-05-20T04:22:02;96751.72;;;12.58;67.08
49044;BME280;34860;48.066;14.124;2023-05-20T04:24:56;96744.94;;;12.59;67.02
49044;BME280;34860;48.066;14.124;2023-05-20T04:27:45;96756.84;;;12.60;67.10
49044;BME280;34860;48.066;14.124;2023-05-20T04:30:35;96756.41;;;12.61;67.02
49044;BME280;34860;48.066;14.124;2023-05-20T04:33:25;96752.41;;;12.62;67.13
49044;BME280;34860;48.066;14.124;2023-05-20T04:36:14;96759.06;;;12.65;66.95
49044;BME280;34860;48.066;14.124;2023-05-20T04:39:03;96758.19;;;12.68;67.01
49044;BME280;34860;48.066;14.124;2023-05-20T04:41:53;96752.94;;;12.70;66.96
49044;BME280;34860;48.066;14.124;2023-05-20T04:44:42;96748.78;;;12.75;66.73
49044;BME280;34860;48.066;14.124;2023-05-20T04:47:34;96751.03;;;12.80;66.74
49044;BME280;34860;48.066;14.124;2023-05-20T04:50:26;96750.47;;;12.85;66.75
49044;BME280;34860;48.066;14.124;2023-05-20T04:53:15;96737.50;;;12.91;66.65
49044;BME280;34860;48.066;14.124;2023-05-20T04:56:04;96758.34;;;12.99;66.54
49044;BME280;34860;48.066;14.124;2023-05-20T04:58:56;96754.84;;;13.08;66.37
49044;BME280;34860;48.066;14.124;2023-05-20T05:01:48;96756.50;;;13.18;66.43
49044;BME280;34860;48.066;14.124;2023-05-20T05:04:41;96763.38;;;13.26;66.23
49044;BME280;34860;48.066;14.124;2023-05-20T05:07:34;96757.09;;;13.35;66.10
49044;BME280;34860;48.066;14.124;2023-05-20T05:10:23;96761.22;;;13.43;66.21
49044;BME280;34860;48.066;14.124;2023-05-20T05:13:11;96772.78;;;13.55;66.12
49044;BME280;34860;48.066;14.124;2023-05-20T05:16:01;96771.28;;;13.63;65.83
49044;BME280;34860;48.066;14.124;2023-05-20T05:18:51;96772.56;;;13.71;65.98
49044;BME280;34860;48.066;14.124;2023-05-20T05:21:46;96765.78;;;13.81;66.08
49044;BME280;34860;48.066;14.124;2023-05-20T05:24:39;96759.81;;;13.92;66.09
49044;BME280;34860;48.066;14.124;2023-05-20T05:27:31;96763.44;;;14.02;65.92
49044;BME280;34860;48.066;14.124;2023-05-20T05:30:22;96763.78;;;14.13;65.82
49044;BME280;34860;48.066;14.124;2023-05-20T05:33:13;96755.00;;;14.24;65.78
49044;BME280;34860;48.066;14.124;2023-05-20T05:36:06;96757.06;;;14.33;65.77
49044;BME280;34860;48.066;14.124;2023-05-20T05:39:00;96753.50;;;14.42;65.60
49044;BME280;34860;48.066;14.124;2023-05-20T05:41:57;96756.03;;;14.49;65.68
49044;BME280;34860;48.066;14.124;2023-05-20T05:44:47;96758.53;;;14.56;65.82
49044;BME280;34860;48.066;14.124;2023-05-20T05:47:39;96743.97;;;14.61;65.80
49044;BME280;34860;48.066;14.124;2023-05-20T05:50:32;96744.91;;;14.67;65.70
49044;BME280;34860;48.066;14.124;2023-05-20T05:53:20;96747.44;;;14.75;65.89
49044;BME280;34860;48.066;14.124;2023-05-20T05:56:14;96749.16;;;14.81;65.95
49044;BME280;34860;48.066;14.124;2023-05-20T05:59:09;96749.28;;;14.87;65.94
49044;BME280;34860;48.066;14.124;2023-05-20T06:01:59;96751.16;;;14.90;66.09
49044;BME280;34860;48.066;14.124;2023-05-20T06:04:53;96747.13;;;14.91;66.16
49044;BME280;34860;48.066;14.124;2023-05-20T06:07:46;96753.84;;;14.94;66.18
49044;BME280;34860;48.066;14.124;2023-05-20T06:10:37;96743.72;;;14.96;66.24
49044;BME280;34860;48.066;14.124;2023-05-20T06:13:27;96748.84;;;14.98;66.28
49044;BME280;34860;48.066;14.124;2023-05-20T06:16:20;96752.75;;;15.00;66.33
49044;BME280;34860;48.066;14.124;2023-05-20T06:19:12;96750.56;;;15.04;66.32
49044;BME280;34860;48.066;14.124;2023-05-20T06:22:00;96756.03;;;15.08;66.34
49044;BME280;34860;48.066;14.124;2023-05-20T06:24:54;96753.84;;;15.12;66.09
49044;BME280;34860;48.066;14.124;2023-05-20T06:27:54;96757.75;;;15.15;66.16
49044;BME280;34860;48.066;14.124;2023-05-20T06:30:45;96753.25;;;15.17;66.29
49044;BME280;34860;48.066;14.124;2023-05-20T06:33:37;96745.16;;;15.19;66.37
49044;BME280;34860;48.066;14.124;2023-05-20T06:36:32;96740.63;;;15.22;66.57
49044;BME280;34860;48.066;14.124;2023-05-20T06:39:24;96739.69;;;15.25;66.29
49044;BME280;34860;48.066;14.124;2023-05-20T06:42:18;96747.50;;;15.30;66.35
49044;BME280;34860;48.066;14.124;2023-05-20T06:45:21;96747.78;;;15.32;66.42
49044;BME280;34860;48.066;14.124;2023-05-20T06:48:13;96745.75;;;15.33;66.27
49044;BME280;34860;48.066;14.124;2023-05-20T06:51:09;96739.69;;;15.34;66.07
49044;BME280;34860;48.066;14.124;2023-05-20T06:54:00;96740.47;;;15.35;66.06
49044;BME280;34860;48.066;14.124;2023-05-20T06:56:52;96741.25;;;15.35;66.46
49044;BME280;34860;48.066;14.124;2023-05-20T06:59:43;96732.38;;;15.37;66.44
49044;BME280;34860;48.066;14.124;2023-05-20T07:02:33;96729.59;;;15.37;66.45
49044;BME280;34860;48.066;14.124;2023-05-20T07:05:22;96731.13;;;15.38;66.36
49044;BME280;34860;48.066;14.124;2023-05-20T07:08:14;96735.78;;;15.41;66.52
49044;BME280;34860;48.066;14.124;2023-05-20T07:11:03;96732.53;;;15.42;66.28
49044;BME280;34860;48.066;14.124;2023-05-20T07:13:57;96729.59;;;15.46;66.31
49044;BME280;34860;48.066;14.124;2023-05-20T07:16:48;96731.44;;;15.49;66.22
49044;BME280;34860;48.066;14.124;2023-05-20T07:19:41;96739.22;;;15.54;66.24
49044;BME280;34860;48.066;14.124;2023-05-20T07:22:32;96737.50;;;15.57;66.21
49044;BME280;34860;48.066;14.124;2023-05-20T07:25:54;96734.53;;;15.60;66.15
49044;BME280;34860;48.066;14.124;2023-05-20T07:28:43;96730.81;;;15.64;66.09
49044;BME280;34860;48.066;14.124;2023-05-20T07:31:38;96735.78;;;15.69;66.06
49044;BME280;34860;48.066;14.124;2023-05-20T07:34:27;96725.97;;;15.73;66.07
49044;BME280;34860;48.066;14.124;2023-05-20T07:37:22;96723.47;;;15.75;66.07
49044;BME280;34860;48.066;14.124;2023-05-20T07:40:13;96722.84;;;15.80;65.96
49044;BME280;34860;48.066;14.124;2023-05-20T07:43:07;96712.38;;;15.90;65.91
49044;BME280;34860;48.066;14.124;2023-05-20T07:46:05;96712.53;;;15.96;65.84
49044;BME280;34860;48.066;14.124;2023-05-20T07:48:54;96706.59;;;16.03;65.65
49044;BME280;34860;48.066;14.124;2023-05-20T07:51:47;96714.19;;;16.12;65.90
49044;BME280;34860;48.066;14.124;2023-05-20T07:54:41;96707.75;;;16.21;65.72
49044;BME280;34860;48.066;14.124;2023-05-20T07:57:31;96706.16;;;16.29;65.59
49044;BME280;34860;48.066;14.124;2023-05-20T08:00:21;96703.03;;;16.36;65.37
49044;BME280;34860;48.066;14.124;2023-05-20T08:03:13;96704.22;;;16.44;65.42
49044;BME280;34860;48.066;14.124;2023-05-20T08:06:13;96706.22;;;16.53;65.49
49044;BME280;34860;48.066;14.124;2023-05-20T08:09:03;96703.34;;;16.62;65.52
49044;BME280;34860;48.066;14.124;2023-05-20T08:11:56;96704.84;;;16.73;65.21
49044;BME280;34860;48.066;14.124;2023-05-20T08:14:49;96693.56;;;16.82;65.40
49044;BME280;34860;48.066;14.124;2023-05-20T08:17:43;96683.84;;;16.92;65.18
49044;BME280;34860;48.066;14.124;2023-05-20T08:20:35;96683.78;;;17.01;65.23
49044;BME280;34860;48.066;14.124;2023-05-20T08:23:25;96682.91;;;17.10;65.35
49044;BME280;34860;48.066;14.124;2023-05-20T08:26:17;96677.22;;;17.19;65.02
49044;BME280;34860;48.066;14.124;2023-05-20T08:29:09;96674.06;;;17.27;65.06
49044;BME280;34860;48.066;14.124;2023-05-20T08:32:00;96683.66;;;17.35;65.13
49044;BME280;34860;48.066;14.124;2023-05-20T08:34:52;96679.19;;;17.43;65.23
49044;BME280;34860;48.066;14.124;2023-05-20T08:37:46;96678.03;;;17.50;65.01
49044;BME280;34860;48.066;14.124;2023-05-20T08:40:40;96671.56;;;17.58;65.27
49044;BME280;34860;48.066;14.124;2023-05-20T08:43:30;96671.44;;;17.68;65.04
49044;BME280;34860;48.066;14.124;2023-05-20T08:46:22;96668.06;;;17.78;64.98
49044;BME280;34860;48.066;14.124;2023-05-20T08:49:13;96662.63;;;17.90;64.90
49044;BME280;34860;48.066;14.124;2023-05-20T08:52:05;96657.66;;;18.00;64.89
49044;BME280;34860;48.066;14.124;2023-05-20T08:54:55;96660.69;;;18.11;64.93
49044;BME280;34860;48.066;14.124;2023-05-20T08:57:44;96654.91;;;18.20;64.72
49044;BME280;34860;48.066;14.124;2023-05-20T09:00:37;96660.91;;;18.28;64.54
49044;BME280;34860;48.066;14.124;2023-05-20T09:03:27;96664.09;;;18.36;64.72
49044;BME280;34860;48.066;14.124;2023-05-20T09:06:21;96656.78;;;18.44;64.77
49044;BME280;34860;48.066;14.124;2023-05-20T09:09:20;96653.09;;;18.52;64.79
49044;BME280;34860;48.066;14.124;2023-05-20T09:12:13;96647.31;;;18.62;64.71
49044;BME280;34860;48.066;14.124;2023-05-20T09:15:06;96645.91;;;18.72;64.56
49044;BME280;34860;48.066;14.124;2023-05-20T09:18:02;96650.13;;;18.82;64.53
49044;BME280;34860;48.066;14.124;2023-05-20T09:20:51;96645.94;;;18.93;64.42
49044;BME280;34860;48.066;14.124;2023-05-20T09:23:46;96648.13;;;19.03;64.49
49044;BME280;34860;48.066;14.124;2023-05-20T09:26:36;96645.13;;;19.13;64.40
49044;BME280;34860;48.066;14.124;2023-05-20T09:29:32;96652.66;;;19.21;64.24
49044;BME280;34860;48.066;14.124;2023-05-20T09:32:20;96645.31;;;19.30;64.21
49044;BME280;34860;48.066;14.124;2023-05-20T09:35:12;96649.50;;;19.40;64.23
49044;BME280;34860;48.066;14.124;2023-05-20T09:38:04;96647.31;;;19.50;64.22
49044;BME280;34860;48.066;14.124;2023-05-20T09:40:56;96659.88;;;19.54;64.10
49044;BME280;34860;48.066;14.124;2023-05-20T09:43:51;96655.09;;;19.60;64.18
49044;BME280;34860;48.066;14.124;2023-05-20T09:46:42;96657.19;;;19.66;64.20
49044;BME280;34860;48.066;14.124;2023-05-20T09:49:36;96662.63;;;19.69;64.11
49044;BME280;34860;48.066;14.124;2023-05-20T09:52:30;96655.47;;;19.74;64.09
49044;BME280;34860;48.066;14.124;2023-05-20T09:55:22;96643.50;;;19.79;64.24
49044;BME280;34860;48.066;14.124;2023-05-20T09:58:17;96658.41;;;19.85;64.25
49044;BME280;34860;48.066;14.124;2023-05-20T10:01:10;96650.00;;;19.91;64.14
49044;BME280;34860;48.066;14.124;2023-05-20T10:04:05;96662.31;;;19.93;64.17
49044;BME280;34860;48.066;14.124;2023-05-20T10:07:08;96642.84;;;19.95;64.09
49044;BME280;34860;48.066;14.124;2023-05-20T10:10:13;96650.31;;;19.99;64.34
49044;BME280;34860;48.066;14.124;2023-05-20T10:13:13;96644.94;;;20.01;64.20
49044;BME280;34860;48.066;14.124;2023-05-20T10:16:18;96645.22;;;20.03;64.17
49044;BME280;34860;48.066;14.124;2023-05-20T10:19:25;96638.06;;;20.07;64.05
49044;BME280;34860;48.066;14.124;2023-05-20T10:22:25;96646.03;;;20.09;64.07
49044;BME280;34860;48.066;14.124;2023-05-20T10:25:23;96656.81;;;20.10;64.21
49044;BME280;34860;48.066;14.124;2023-05-20T10:28:13;96652.22;;;20.13;64.07
49044;BME280;34860;48.066;14.124;2023-05-20T10:31:16;96646.31;;;20.17;64.12
49044;BME280;34860;48.066;14.124;2023-05-20T10:34:14;96645.81;;;20.18;64.34
49044;BME280;34860;48.066;14.124;2023-05-20T10:37:04;96648.94;;;20.20;64.06
49044;BME280;34860;48.066;14.124;2023-05-20T10:40:07;96648.69;;;20.24;64.20
49044;BME280;34860;48.066;14.124;2023-05-20T10:43:07;96643.06;;;20.24;64.22
49044;BME280;34860;48.066;14.124;2023-05-20T10:46:02;96636.91;;;20.25;64.20
49044;BME280;34860;48.066;14.124;2023-05-20T10:48:58;96639.47;;;20.29;64.14
49044;BME280;34860;48.066;14.124;2023-05-20T10:51:50;96636.72;;;20.35;64.02
49044;BME280;34860;48.066;14.124;2023-05-20T10:54:43;96641.88;;;20.42;63.97
49044;BME280;34860;48.066;14.124;2023-05-20T10:57:33;96635.22;;;20.45;63.97
49044;BME280;34860;48.066;14.124;2023-05-20T11:00:27;96631.88;;;20.46;63.89
49044;BME280;34860;48.066;14.124;2023-05-20T11:03:17;96632.16;;;20.48;63.93
49044;BME280;34860;48.066;14.124;2023-05-20T11:06:14;96631.38;;;20.48;63.99
49044;BME280;34860;48.066;14.124;2023-05-20T11:09:04;96638.31;;;20.47;63.89
49044;BME280;34860;48.066;14.124;2023-05-20T11:12:02;96637.03;;;20.48;64.12
49044;BME280;34860;48.066;14.124;2023-05-20T11:14:52;96628.81;;;20.44;64.14
49044;BME280;34860;48.066;14.124;2023-05-20T11:17:51;96637.03;;;20.42;64.28
49044;BME280;34860;48.066;14.124;2023-05-20T11:20:45;96633.91;;;20.40;64.35
49044;BME280;34860;48.066;14.124;2023-05-20T11:23:35;96633.66;;;20.38;64.35
49044;BME280;34860;48.066;14.124;2023-05-20T11:26:28;96644.94;;;20.38;64.34
49044;BME280;34860;48.066;14.124;2023-05-20T11:29:18;96639.53;;;20.35;64.40
49044;BME280;34860;48.066;14.124;2023-05-20T11:32:12;96633.59;;;20.32;64.30
49044;BME280;34860;48.066;14.124;2023-05-20T11:35:06;96633.59;;;20.32;64.45
49044;BME280;34860;48.066;14.124;2023-05-20T11:37:56;96628.25;;;20.35;64.21
49044;BME280;34860;48.066;14.124;2023-05-20T11:40:53;96626.44;;;20.37;64.17
49044;BME280;34860;48.066;14.124;2023-05-20T11:43:54;96614.16;;;20.40;64.13
49044;BME280;34860;48.066;14.124;2023-05-20T11:46:45;96611.88;;;20.44;64.08
49044;BME280;34860;48.066;14.124;2023-05-20T11:49:38;96612.38;;;20.48;63.98
49044;BME280;34860;48.066;14.124;2023-05-20T11:52:32;96622.97;;;20.54;63.95
49044;BME280;34860;48.066;14.124;2023-05-20T11:55:28;96612.97;;;20.58;63.99
49044;BME280;34860;48.066;14.124;2023-05-20T11:58:22;96613.78;;;20.64;63.85
49044;BME280;34860;48.066;14.124;2023-05-20T12:01:18;96614.56;;;20.71;63.79
49044;BME280;34860;48.066;14.124;2023-05-20T12:04:09;96614.38;;;20.80;63.61
49044;BME280;34860;48.066;14.124;2023-05-20T12:06:59;96618.78;;;20.92;63.57
49044;BME280;34860;48.066;14.124;2023-05-20T12:09:50;96604.69;;;21.03;63.58
49044;BME280;34860;48.066;14.124;2023-05-20T12:12:40;96605.75;;;21.17;63.50
49044;BME280;34860;48.066;14.124;2023-05-20T12:15:36;96601.41;;;21.33;63.46
49044;BME280;34860;48.066;14.124;2023-05-20T12:18:27;96616.63;;;21.53;63.34
49044;BME280;34860;48.066;14.124;2023-05-20T12:21:18;96605.31;;;21.70;63.07
49044;BME280;34860;48.066;14.124;2023-05-20T12:24:10;96605.31;;;21.87;63.16
49044;BME280;34860;48.066;14.124;2023-05-20T12:26:59;96605.81;;;22.02;63.10
49044;BME280;34860;48.066;14.124;2023-05-20T12:29:52;96612.75;;;22.18;62.85
49044;BME280;34860;48.066;14.124;2023-05-20T12:32:43;96609.41;;;22.31;62.82
49044;BME280;34860;48.066;14.124;2023-05-20T12:35:36;96600.38;;;22.44;62.83
49044;BME280;34860;48.066;14.124;2023-05-20T12:38:31;96604.97;;;22.53;62.70
49044;BME280;34860;48.066;14.124;2023-05-20T12:41:25;96592.88;;;22.58;62.81
49044;BME280;34860;48.066;14.124;2023-05-20T12:44:14;96597.50;;;22.61;62.90
49044;BME280;34860;48.066;14.124;2023-05-20T12:47:04;96594.66;;;22.61;62.82
49044;BME280;34860;48.066;14.124;2023-05-20T12:49:59;96595.69;;;22.58;62.94
49044;BME280;34860;48.066;14.124;2023-05-20T12:52:52;96595.94;;;22.54;62.89
49044;BME280;34860;48.066;14.124;2023-05-20T12:55:41;96594.16;;;22.51;63.11
49044;BME280;34860;48.066;14.124;2023-05-20T12:58:34;96590.59;;;22.45;63.11
49044;BME280;34860;48.066;14.124;2023-05-20T13:01:23;96592.16;;;22.40;63.28
49044;BME280;34860;48.066;14.124;2023-05-20T13:04:13;96586.47;;;22.35;63.40
49044;BME280;34860;48.066;14.124;2023-05-20T13:07:08;96580.81;;;22.29;63.39
49044;BME280;34860;48.066;14.124;2023-05-20T13:09:59;96580.31;;;22.25;63.46
49044;BME280;34860;48.066;14.124;2023-05-20T13:12:49;96583.13;;;22.19;63.26
49044;BME280;34860;48.066;14.124;2023-05-20T13:15:44;96578.78;;;22.12;63.38
49044;BME280;34860;48.066;14.124;2023-05-20T13:18:38;96576.75;;;22.07;63.44
49044;BME280;34860;48.066;14.124;2023-05-20T13:21:27;96571.88;;;22.02;63.43
49044;BME280;34860;48.066;14.124;2023-05-20T13:24:27;96578.56;;;21.93;63.44
49044;BME280;34860;48.066;14.124;2023-05-20T13:27:16;96580.88;;;21.89;63.61
49044;BME280;34860;48.066;14.124;2023-05-20T13:30:08;96582.94;;;21.83;63.51
49044;BME280;34860;48.066;14.124;2023-05-20T13:32:59;96581.13;;;21.74;63.60
49044;BME280;34860;48.066;14.124;2023-05-20T13:35:53;96579.09;;;21.69;63.60
49044;BME280;34860;48.066;14.124;2023-05-20T13:38:47;96571.66;;;21.61;63.54
49044;BME280;34860;48.066;14.124;2023-05-20T13:41:41;96573.69;;;21.54;63.70
49044;BME280;34860;48.066;14.124;2023-05-20T13:44:35;96572.41;;;21.50;63.72
49044;BME280;34860;48.066;14.124;2023-05-20T13:47:30;96570.09;;;21.48;63.51
49044;BME280;34860;48.066;14.124;2023-05-20T13:50:20;96555.97;;;21.48;63.44
49044;BME280;34860;48.066;14.124;2023-05-20T13:53:09;96563.94;;;21.50;63.36
49044;BME280;34860;48.066;14.124;2023-05-20T13:56:00;96560.59;;;21.51;63.41
49044;BME280;34860;48.066;14.124;2023-05-20T13:58:55;96549.78;;;21.55;63.44
49044;BME280;34860;48.066;14.124;2023-05-20T14:01:43;96544.66;;;21.59;63.38
49044;BME280;34860;48.066;14.124;2023-05-20T14:04:38;96547.22;;;21.63;63.30
49044;BME280;34860;48.066;14.124;2023-05-20T14:07:33;96550.03;;;21.69;63.27
49044;BME280;34860;48.066;14.124;2023-05-20T14:10:25;96542.84;;;21.73;63.18
49044;BME280;34860;48.066;14.124;2023-05-20T14:13:14;96549.28;;;21.80;63.21
49044;BME280;34860;48.066;14.124;2023-05-20T14:16:08;96533.03;;;21.86;63.06
49044;BME280;34860;48.066;14.124;2023-05-20T14:18:58;96531.75;;;21.92;63.00
49044;BME280;34860;48.066;14.124;2023-05-20T14:21:46;96540.22;;;22.04;63.11
49044;BME280;34860;48.066;14.124;2023-05-20T14:24:36;96539.16;;;22.12;62.90
49044;BME280;34860;48.066;14.124;2023-05-20T14:27:25;96535.53;;;22.23;62.82
49044;BME280;34860;48.066;14.124;2023-05-20T14:30:16;96546.59;;;22.33;62.83
49044;BME280;34860;48.066;14.124;2023-05-20T14:33:07;96549.91;;;22.37;62.95
49044;BME280;34860;48.066;14.124;2023-05-20T14:36:00;96540.91;;;22.38;62.81
49044;BME280;34860;48.066;14.124;2023-05-20T14:38:52;96530.09;;;22.37;62.73
49044;BME280;34860;48.066;14.124;2023-05-20T14:41:40;96529.84;;;22.35;62.84
49044;BME280;34860;48.066;14.124;2023-05-20T14:44:33;96531.66;;;22.32;62.88
49044;BME280;34860;48.066;14.124;2023-05-20T14:47:22;96528.81;;;22.32;62.83
49044;BME280;34860;48.066;14.124;2023-05-20T14:50:17;96529.09;;;22.34;62.90
49044;BME280;34860;48.066;14.124;2023-05-20T14:53:05;96529.84;;;22.35;62.85
49044;BME280;34860;48.066;14.124;2023-05-20T14:56:01;96532.94;;;22.37;62.88
49044;BME280;34860;48.066;14.124;2023-05-20T14:58:51;96533.72;;;22.37;62.85
49044;BME280;34860;48.066;14.124;2023-05-20T15:01:49;96523.69;;;22.36;62.76